Time;durP1;ratioP1;P1;durP2;ratioP2;P2;SDS_P1;SDS_P2;PMS_P1;PMS_P2;Temp;Humidity;BMP_temperature;BMP_pressure;BME280_temperature;BME280_humidity;BME280_pressure;Samples;Min_cycle;Max_cycle;Signal;HPM_P1;HPM_P2
2023/10/27 00:01:16;;;;;;;89.20;27.17;;;;;;;9.57;100.00;98924.59;5030941;28;20029;-83
2023/10/27 00:03:41;;;;;;;88.07;27.90;;;;;;;9.53;100.00;98921.59;5031127;28;20104;-84
2023/10/27 00:06:07;;;;;;;84.05;26.90;;;;;;;9.59;100.00;98933.94;5029845;28;20067;-83
2023/10/27 00:08:32;;;;;;;73.13;24.70;;;;;;;9.57;100.00;98937.91;5029836;28;20030;-83
2023/10/27 00:11:04;;;;;;;86.22;26.80;;;;;;;9.58;100.00;98929.66;5029648;28;20470;-83
2023/10/27 00:13:29;;;;;;;85.25;27.55;;;;;;;9.63;100.00;98936.91;5031071;28;20504;-82
2023/10/27 00:15:54;;;;;;;86.32;27.45;;;;;;;9.60;100.00;98926.75;5032267;28;20025;-84
2023/10/27 00:18:19;;;;;;;74.28;25.77;;;;;;;9.63;100.00;98932.38;5033009;28;20022;-84
2023/10/27 00:20:45;;;;;;;80.72;25.75;;;;;;;9.60;100.00;98922.22;5034215;28;20100;-84
2023/10/27 00:23:10;;;;;;;80.15;26.38;;;;;;;9.62;100.00;98921.94;5033319;28;20030;-84
2023/10/27 00:25:36;;;;;;;91.47;28.52;;;;;;;9.61;100.00;98920.34;5034158;28;20104;-84
2023/10/27 00:28:01;;;;;;;84.38;27.60;;;;;;;9.65;100.00;98924.09;5034137;28;20029;-83
2023/10/27 00:30:26;;;;;;;88.03;28.67;;;;;;;9.57;100.00;98905.91;5034044;28;20021;-84
2023/10/27 00:32:51;;;;;;;82.93;28.55;;;;;;;9.62;100.00;98913.94;5034094;28;20168;-84
2023/10/27 00:35:17;;;;;;;83.90;27.60;;;;;;;9.61;100.00;98902.47;5032913;28;20026;-84
2023/10/27 00:37:42;;;;;;;81.15;26.63;;;;;;;9.58;100.00;98900.31;5034011;28;20064;-84
2023/10/27 00:40:08;;;;;;;82.43;27.13;;;;;;;9.63;100.00;98899.53;5032706;28;20018;-85
2023/10/27 00:42:34;;;;;;;71.85;25.42;;;;;;;9.63;100.00;98904.88;5032532;28;20537;-83
2023/10/27 00:44:59;;;;;;;85.32;26.98;;;;;;;9.68;100.00;98904.91;5033912;28;20032;-85
2023/10/27 00:47:26;;;;;;;81.32;27.20;;;;;;;9.64;100.00;98903.81;5033912;28;20034;-85
2023/10/27 00:49:54;;;;;;;79.15;28.30;;;;;;;9.70;100.00;98901.97;5032501;28;20078;-84
2023/10/27 00:52:20;;;;;;;79.45;25.73;;;;;;;9.67;100.00;98900.63;5033768;28;20163;-84
2023/10/27 00:54:47;;;;;;;79.20;27.17;;;;;;;9.69;100.00;98900.38;5032395;28;20163;-83
2023/10/27 00:57:14;;;;;;;79.30;27.48;;;;;;;9.69;100.00;98900.38;5033593;28;20029;-84
2023/10/27 00:59:40;;;;;;;78.97;26.45;;;;;;;9.65;100.00;98888.63;5033658;28;20036;-84
2023/10/27 01:02:05;;;;;;;70.53;25.58;;;;;;;9.72;100.00;98895.31;5032153;28;20029;-85
2023/10/27 01:04:31;;;;;;;69.15;25.27;;;;;;;9.65;100.00;98891.28;5032268;28;20116;-84
2023/10/27 01:06:56;;;;;;;67.25;26.45;;;;;;;9.73;100.00;98901.47;5033646;28;20031;-84
2023/10/27 01:09:22;;;;;;;69.15;24.88;;;;;;;9.69;100.00;98889.69;5033485;28;20087;-84
2023/10/27 01:11:48;;;;;;;73.78;27.80;;;;;;;9.67;100.00;98884.63;5033546;28;20053;-83
2023/10/27 01:14:14;;;;;;;70.88;26.27;;;;;;;9.70;100.00;98892.13;5033453;28;20577;-84
2023/10/27 01:16:39;;;;;;;71.88;25.30;;;;;;;9.69;100.00;98887.84;5033446;28;20108;-84
2023/10/27 01:19:05;;;;;;;66.28;24.77;;;;;;;9.71;100.00;98884.91;5032014;28;20026;-84
2023/10/27 01:21:30;;;;;;;49.15;19.33;;;;;;;9.68;100.00;98886.22;5032223;28;20548;-85
2023/10/27 01:23:55;;;;;;;72.97;24.70;;;;;;;9.71;100.00;98885.72;5033153;28;20061;-84
2023/10/27 01:26:21;;;;;;;74.07;25.75;;;;;;;9.67;100.00;98881.97;5032885;28;20030;-83
2023/10/27 01:28:46;;;;;;;68.13;24.75;;;;;;;9.75;100.00;98896.69;5031984;28;20026;-84
2023/10/27 01:31:11;;;;;;;64.05;23.63;;;;;;;9.64;100.00;98890.47;5031911;28;20064;-83
2023/10/27 01:33:38;;;;;;;61.30;22.88;;;;;;;9.73;100.00;98901.47;5031861;28;20033;-83
2023/10/27 01:36:04;;;;;;;49.95;19.80;;;;;;;9.76;100.00;98896.41;5033059;28;20059;-84
2023/10/27 01:38:29;;;;;;;55.38;21.48;;;;;;;9.78;100.00;98901.50;5015297;28;20065;-85
2023/10/27 01:40:54;;;;;;;63.60;22.90;;;;;;;9.68;100.00;98883.56;5032937;28;20017;-85
2023/10/27 01:43:19;;;;;;;58.45;24.25;;;;;;;9.68;100.00;98885.44;5031781;28;20029;-84
2023/10/27 01:45:45;;;;;;;56.63;22.45;;;;;;;9.66;100.00;98882.22;5031649;28;20030;-84
2023/10/27 01:48:10;;;;;;;62.05;24.92;;;;;;;9.65;100.00;98880.59;5031939;28;20044;-85
2023/10/27 01:50:35;;;;;;;60.50;23.85;;;;;;;9.72;100.00;98890.00;5031583;28;20060;-86
2023/10/27 01:53:01;;;;;;;52.80;21.70;;;;;;;9.73;100.00;98885.47;5015082;28;20052;-85
2023/10/27 01:55:26;;;;;;;52.00;22.33;;;;;;;9.69;100.00;98881.69;5032888;28;20037;-85
2023/10/27 01:57:51;;;;;;;56.42;22.90;;;;;;;9.71;100.00;98884.91;5031420;28;20032;-85
2023/10/27 02:00:17;;;;;;;57.83;21.40;;;;;;;9.67;100.00;98881.16;5032762;28;20036;-85
2023/10/27 02:02:42;;;;;;;63.55;24.08;;;;;;;9.69;100.00;98879.84;5031364;28;20128;-85
2023/10/27 02:05:08;;;;;;;57.15;22.13;;;;;;;9.66;100.00;98875.00;5032521;28;20535;-85
2023/10/27 02:07:34;;;;;;;62.15;24.60;;;;;;;9.66;100.00;98872.34;5032610;28;20104;-86
2023/10/27 02:09:59;;;;;;;46.28;21.88;;;;;;;9.66;100.00;98866.19;5031230;28;20124;-87
2023/10/27 02:12:26;;;;;;;60.33;23.80;;;;;;;9.54;100.00;98853.03;5032562;28;20057;-85
2023/10/27 02:14:51;;;;;;;58.08;24.77;;;;;;;9.53;100.00;98841.56;5014771;28;20033;-86
2023/10/27 02:17:17;;;;;;;57.95;22.77;;;;;;;9.51;100.00;98837.53;5032415;28;20033;-86
2023/10/27 02:19:42;;;;;;;47.28;21.52;;;;;;;9.60;100.00;98850.16;5014650;28;20033;-86
2023/10/27 02:22:08;;;;;;;59.33;23.60;;;;;;;9.49;100.00;98832.47;5032320;28;20116;-88
2023/10/27 02:24:33;;;;;;;62.47;22.88;;;;;;;9.65;100.00;98865.41;5032321;28;20482;-88
2023/10/27 02:26:58;;;;;;;49.42;20.30;;;;;;;9.45;100.00;98833.22;5032542;28;20026;-86
2023/10/27 02:29:24;;;;;;;50.97;21.35;;;;;;;9.42;100.00;98820.41;5014737;28;20035;-86
2023/10/27 02:31:49;;;;;;;62.55;22.70;;;;;;;9.43;100.00;98827.34;5032273;28;20041;-86
2023/10/27 02:34:16;;;;;;;55.35;20.55;;;;;;;9.49;100.00;98835.13;5030971;28;20021;-88
2023/10/27 02:36:41;;;;;;;51.50;21.90;;;;;;;9.54;100.00;98840.53;5030628;28;20503;-89
2023/10/27 02:39:07;;;;;;;56.03;20.95;;;;;;;9.34;100.00;98794.22;5029811;28;20021;-87
2023/10/27 02:41:32;;;;;;;48.38;19.80;;;;;;;9.49;100.00;98823.66;5032139;28;20367;-91
2023/10/27 02:43:58;;;;;;;48.33;20.73;;;;;;;9.67;100.00;98854.47;5032403;28;20021;-89
2023/10/27 02:46:24;;;;;;;45.53;19.38;;;;;;;9.33;100.00;98801.41;5014170;28;20036;-87
2023/10/27 02:48:50;;;;;;;43.20;18.65;;;;;;;9.38;100.00;98812.13;5014299;28;20030;-87
2023/10/27 02:51:16;;;;;;;47.72;19.40;;;;;;;9.45;100.00;98818.03;5032064;28;20033;-87
2023/10/27 02:53:42;;;;;;;51.50;21.48;;;;;;;9.57;100.00;98837.34;5030519;28;20026;-88
2023/10/27 02:56:08;;;;;;;43.05;19.70;;;;;;;9.38;100.00;98811.31;5030594;28;20440;-87
2023/10/27 02:58:34;;;;;;;46.50;18.67;;;;;;;9.40;100.00;98807.31;5030675;28;20036;-87
2023/10/27 03:00:59;;;;;;;53.13;19.80;;;;;;;9.35;100.00;98806.50;5030558;28;20029;-87
2023/10/27 03:03:27;;;;;;;43.15;19.50;;;;;;;9.51;100.00;98826.88;5030641;28;20025;-89
2023/10/27 03:05:52;;;;;;;52.00;19.35;;;;;;;9.36;100.00;98800.91;5030519;28;20378;-88
2023/10/27 03:08:19;;;;;;;53.47;20.02;;;;;;;9.35;100.00;98793.97;5030771;28;20026;-90
2023/10/27 03:10:44;;;;;;;55.75;19.75;;;;;;;9.57;100.00;98829.34;5014687;28;20036;-89
2023/10/27 03:13:10;;;;;;;48.50;19.05;;;;;;;9.40;100.00;98796.66;5031467;28;20021;-89
2023/10/27 03:15:36;;;;;;;48.95;20.17;;;;;;;9.24;100.00;98778.94;5017650;28;20474;-89
2023/10/27 03:18:02;;;;;;;48.88;19.33;;;;;;;9.27;100.00;98783.78;5021711;28;20048;-89
2023/10/27 03:20:28;;;;;;;48.47;18.85;;;;;;;9.41;100.00;98800.13;5033827;28;20488;-88
2023/10/27 03:22:53;;;;;;;43.88;17.10;;;;;;;9.50;100.00;98818.06;5030223;28;20116;-91
2023/10/27 03:25:19;;;;;;;44.78;18.05;;;;;;;9.58;100.00;98830.13;5030650;28;20029;-90
2023/10/27 03:27:44;;;;;;;51.53;17.88;;;;;;;9.38;100.00;98792.66;5031585;28;20029;-91
2023/10/27 03:30:10;;;;;;;49.22;18.35;;;;;;;9.37;100.00;98791.03;5013836;28;20022;-90
2023/10/27 03:32:35;;;;;;;49.88;18.35;;;;;;;9.43;100.00;98798.81;5013906;28;20557;-91
2023/10/27 03:35:04;;;;;;;45.03;18.42;;;;;;;9.53;100.00;98803.41;5031783;28;20033;-90
2023/10/27 03:37:29;;;;;;;39.35;17.00;;;;;;;9.37;100.00;98789.16;5013842;28;20688;-89
2023/10/27 03:39:55;;;;;;;42.53;17.42;;;;;;;9.34;100.00;98776.34;5031600;28;20030;-89
2023/10/27 03:42:21;;;;;;;47.53;17.85;;;;;;;9.51;100.00;98808.19;5031329;28;20056;-87
2023/10/27 03:44:46;;;;;;;47.00;17.10;;;;;;;9.48;100.00;98803.38;5031456;28;20389;-89
2023/10/27 03:47:11;;;;;;;51.03;18.50;;;;;;;9.46;100.00;98800.97;5031262;28;20087;-88
2023/10/27 03:49:37;;;;;;;45.38;17.45;;;;;;;9.50;100.00;98799.38;5032049;28;20025;-88
2023/10/27 03:52:02;;;;;;;47.92;17.25;;;;;;;9.47;100.00;98791.91;5016975;28;20034;-88
2023/10/27 03:54:28;;;;;;;38.33;16.70;;;;;;;9.42;100.00;98794.53;5033376;28;20025;-88
2023/10/27 03:56:57;;;;;;;46.65;16.75;;;;;;;9.47;100.00;98799.91;5033344;28;20032;-88
2023/10/27 03:59:22;;;;;;;37.60;16.02;;;;;;;9.46;100.00;98797.50;5033555;28;20025;-89
2023/10/27 04:01:48;;;;;;;41.58;17.35;;;;;;;9.44;100.00;98799.63;5033454;28;20029;-88
2023/10/27 04:04:14;;;;;;;41.88;16.23;;;;;;;9.52;100.00;98810.59;5033407;28;20390;-88
2023/10/27 04:06:40;;;;;;;45.13;16.83;;;;;;;9.36;100.00;98784.91;5034659;28;20021;-88
2023/10/27 04:09:05;;;;;;;39.42;16.70;;;;;;;9.52;100.00;98815.94;5033284;28;20030;-89
2023/10/27 04:11:30;;;;;;;40.58;16.00;;;;;;;9.20;100.00;98761.84;5033127;28;20342;-88
2023/10/27 04:13:56;;;;;;;36.67;16.08;;;;;;;9.41;100.00;98794.78;5016655;28;20032;-87
2023/10/27 04:16:21;;;;;;;44.75;16.42;;;;;;;9.51;100.00;98810.84;5033134;28;20033;-86
2023/10/27 04:18:47;;;;;;;39.58;15.52;;;;;;;9.38;100.00;98790.78;5033009;28;20049;-88
2023/10/27 04:21:12;;;;;;;40.78;16.27;;;;;;;9.43;100.00;98798.00;5016495;28;20036;-87
2023/10/27 04:23:37;;;;;;;48.47;16.63;;;;;;;9.56;100.00;98821.59;5032877;28;20063;-88
2023/10/27 04:26:03;;;;;;;34.47;16.33;;;;;;;9.29;100.00;98776.31;5016323;28;20112;-88
2023/10/27 04:28:28;;;;;;;38.97;14.57;;;;;;;9.34;100.00;98789.69;5033077;28;20049;-88
2023/10/27 04:30:53;;;;;;;50.65;16.88;;;;;;;9.35;100.00;98791.28;5016225;28;20052;-90
2023/10/27 04:33:20;;;;;;;33.58;14.77;;;;;;;9.55;100.00;98819.97;5016540;28;20029;-90
2023/10/27 04:35:46;;;;;;;42.08;15.10;;;;;;;9.55;100.00;98823.44;5032851;28;20025;-88
2023/10/27 04:38:12;;;;;;;42.25;15.23;;;;;;;9.46;100.00;98803.63;5033899;28;20502;-88
2023/10/27 04:40:41;;;;;;;43.10;15.40;;;;;;;9.28;100.00;98775.53;5016173;28;20389;-88
2023/10/27 04:43:06;;;;;;;35.20;15.23;;;;;;;9.25;100.00;98772.53;5016234;28;20493;-88
2023/10/27 04:45:31;;;;;;;46.38;15.98;;;;;;;9.38;100.00;98798.78;5034209;28;20030;-88
2023/10/27 04:47:57;;;;;;;39.92;15.15;;;;;;;9.32;100.00;98789.94;5032491;28;20512;-87
2023/10/27 04:50:23;;;;;;;39.90;15.00;;;;;;;9.40;100.00;98793.19;5016082;28;20029;-86
2023/10/27 04:52:48;;;;;;;39.03;15.43;;;;;;;9.51;100.00;98811.66;5033847;28;20040;-86
2023/10/27 04:55:13;;;;;;;40.45;15.50;;;;;;;9.49;100.00;98811.13;5015929;28;20048;-87
2023/10/27 04:57:38;;;;;;;35.58;15.30;;;;;;;9.40;100.00;98802.00;5032760;28;20106;-85
2023/10/27 05:00:05;;;;;;;36.75;15.15;;;;;;;9.43;100.00;98804.16;5033727;28;20017;-87
2023/10/27 05:02:30;;;;;;;44.20;15.10;;;;;;;9.42;100.00;98799.88;5032803;28;20087;-84
2023/10/27 05:04:56;;;;;;;44.72;15.95;;;;;;;9.43;100.00;98798.81;5032527;28;20025;-85
2023/10/27 05:07:22;;;;;;;36.95;14.00;;;;;;;9.41;100.00;98792.94;5032157;28;20033;-87
2023/10/27 05:13:36;;;;;;;40.60;14.93;;;;;;;9.14;100.00;98752.22;5034158;28;20045;-88
2023/10/27 05:16:21;;;;;;;45.28;14.07;;;;;;;9.53;100.00;98817.53;5032072;28;20033;-87
2023/10/27 05:32:36;;;;;;;35.72;14.88;;;;;;;9.16;100.00;98732.22;4972300;28;20078;-84
2023/10/27 05:35:17;;;;;;;41.05;15.35;;;;;;;9.27;100.00;98757.13;4955096;28;20126;-83
2023/10/27 05:44:42;;;;;;;41.97;15.32;;;;;;;9.40;100.00;98770.00;4952866;28;20054;-83
2023/10/27 05:47:13;;;;;;;42.65;15.80;;;;;;;9.30;100.00;98757.41;4952716;28;20031;-84
2023/10/27 05:49:38;;;;;;;45.30;15.73;;;;;;;9.35;100.00;98761.97;4988883;28;20391;-83
2023/10/27 05:52:04;;;;;;;41.47;15.95;;;;;;;9.23;100.00;98740.00;5032012;28;20032;-84
2023/10/27 05:54:30;;;;;;;39.42;14.82;;;;;;;9.30;100.00;98759.25;5015322;28;20053;-83
2023/10/27 05:56:55;;;;;;;46.83;15.02;;;;;;;9.43;100.00;98785.47;5031384;28;20025;-83
2023/10/27 05:59:21;;;;;;;44.55;15.57;;;;;;;9.40;100.00;98785.19;5031674;28;20075;-78
2023/10/27 06:01:48;;;;;;;43.60;15.32;;;;;;;9.40;100.00;98783.31;5031402;28;20045;-79
2023/10/27 06:04:17;;;;;;;43.72;14.85;;;;;;;9.42;100.00;98786.53;5032678;28;20029;-78
2023/10/27 06:06:42;;;;;;;39.78;14.55;;;;;;;9.41;100.00;98782.25;5032648;28;20036;-79
2023/10/27 06:09:08;;;;;;;39.50;14.88;;;;;;;9.43;100.00;98790.81;5031160;28;20116;-80
2023/10/27 06:11:33;;;;;;;37.08;14.50;;;;;;;9.42;100.00;98799.88;5031274;28;20034;-79
2023/10/27 06:13:58;;;;;;;35.75;15.23;;;;;;;9.42;100.00;98799.06;5032344;28;20026;-78
2023/10/27 06:16:24;;;;;;;45.70;14.55;;;;;;;9.43;100.00;98790.81;5031130;28;20493;-79
2023/10/27 06:18:52;;;;;;;36.38;14.85;;;;;;;9.43;100.00;98790.00;5032304;28;20034;-80
2023/10/27 06:21:17;;;;;;;40.83;14.32;;;;;;;9.40;100.00;98794.00;5031248;28;20033;-78
2023/10/27 06:23:43;;;;;;;40.45;15.07;;;;;;;9.47;100.00;98794.56;5031128;28;20572;-79
2023/10/27 06:26:08;;;;;;;39.65;14.95;;;;;;;9.52;100.00;98805.25;5031099;28;20132;-81
2023/10/27 06:28:35;;;;;;;39.33;15.23;;;;;;;9.48;100.00;98793.50;5031066;28;20030;-79
2023/10/27 06:31:00;;;;;;;43.13;15.07;;;;;;;9.54;100.00;98802.34;5032179;28;20070;-80
2023/10/27 06:33:27;;;;;;;43.63;15.80;;;;;;;9.52;100.00;98799.13;5032277;28;20025;-79
2023/10/27 06:35:53;;;;;;;41.65;15.65;;;;;;;9.53;100.00;98812.22;5014356;28;20393;-78
2023/10/27 06:38:19;;;;;;;51.10;15.38;;;;;;;9.52;100.00;98801.78;5030980;28;20071;-79
2023/10/27 06:40:44;;;;;;;39.22;14.55;;;;;;;9.54;100.00;98807.69;5030868;28;20462;-80
2023/10/27 06:43:09;;;;;;;38.60;13.98;;;;;;;9.55;100.00;98810.13;5032043;28;20049;-79
2023/10/27 06:45:35;;;;;;;40.13;15.43;;;;;;;9.58;100.00;98809.59;5032051;28;20531;-79
2023/10/27 06:48:00;;;;;;;33.67;14.35;;;;;;;9.56;100.00;98810.91;5030782;28;20120;-79
2023/10/27 06:50:26;;;;;;;36.70;14.63;;;;;;;9.53;100.00;98804.19;5031935;28;20025;-80
2023/10/27 06:52:51;;;;;;;38.43;14.47;;;;;;;9.57;100.00;98816.00;5030690;28;20596;-80
2023/10/27 06:55:16;;;;;;;33.63;13.95;;;;;;;9.55;100.00;98810.13;5030602;28;20283;-80
2023/10/27 06:57:41;;;;;;;36.75;15.57;;;;;;;9.55;100.00;98815.44;5030641;28;20061;-80
2023/10/27 07:00:07;;;;;;;35.50;14.10;;;;;;;9.54;100.00;98813.84;5030494;28;20492;-80
2023/10/27 07:02:32;;;;;;;48.17;14.10;;;;;;;9.58;100.00;98817.59;5030516;28;20292;-81
2023/10/27 07:04:58;;;;;;;44.47;14.60;;;;;;;9.64;100.00;98826.44;5031896;28;20116;-79
2023/10/27 07:07:23;;;;;;;44.53;15.20;;;;;;;9.67;100.00;98828.59;5030523;28;20427;-79
2023/10/27 07:09:49;;;;;;;40.20;14.47;;;;;;;9.67;100.00;98823.25;5031724;28;20034;-79
2023/10/27 07:12:14;;;;;;;34.95;15.05;;;;;;;9.64;100.00;98826.44;5030547;28;20284;-80
2023/10/27 07:14:39;;;;;;;42.10;14.80;;;;;;;9.64;100.00;98826.44;5031701;28;20084;-80
2023/10/27 07:17:05;;;;;;;46.20;15.50;;;;;;;9.65;100.00;98819.22;5031726;28;20450;-80
2023/10/27 07:19:34;;;;;;;40.55;14.77;;;;;;;9.70;100.00;98833.41;5031622;28;20044;-81
2023/10/27 07:22:00;;;;;;;45.83;16.10;;;;;;;9.72;100.00;98823.28;5031425;28;20033;-80
2023/10/27 07:24:25;;;;;;;35.30;14.27;;;;;;;9.72;100.00;98827.81;5031021;28;20381;-80
2023/10/27 07:26:51;;;;;;;33.05;13.73;;;;;;;9.72;100.00;98820.59;5031477;28;20033;-81
2023/10/27 07:29:16;;;;;;;33.13;13.93;;;;;;;9.76;100.00;98837.72;5030153;28;20018;-81
2023/10/27 07:31:41;;;;;;;40.95;13.63;;;;;;;9.76;100.00;98843.03;5030248;28;20505;-81
2023/10/27 07:34:07;;;;;;;32.83;13.77;;;;;;;9.79;100.00;98847.06;5031457;28;20029;-80
2023/10/27 07:36:32;;;;;;;31.52;13.77;;;;;;;9.80;100.00;98840.66;5030103;28;20021;-79
2023/10/27 07:39:56;;;;;;;30.92;13.57;;;;;;;9.60;100.00;98818.16;5030035;28;20026;-79
2023/10/27 07:42:21;;;;;;;23.92;12.43;;;;;;;9.65;100.00;98819.22;4941980;29;20388;-78
2023/10/27 07:44:46;;;;;;;23.90;12.50;;;;;;;9.90;100.00;98854.88;4974963;28;20049;-80
2023/10/27 07:47:12;;;;;;;28.10;12.77;;;;;;;9.88;100.00;98853.53;5030419;28;20119;-79
2023/10/27 07:49:37;;;;;;;25.10;12.23;;;;;;;9.83;100.00;98854.31;5013691;28;20029;-79
2023/10/27 07:52:03;;;;;;;25.65;12.13;;;;;;;9.86;100.00;98863.66;5031679;28;20044;-80
2023/10/27 07:54:29;;;;;;;26.73;11.88;;;;;;;9.86;100.00;98858.34;5031140;28;20030;-82
2023/10/27 07:56:54;;;;;;;23.05;12.10;;;;;;;9.90;100.00;98862.09;5029895;28;20031;-82
2023/10/27 08:03:04;;;;;;;20.73;10.88;;;;;;;9.77;100.00;98849.19;4978201;28;20052;-82
2023/10/27 08:12:56;;;;;;;20.75;10.70;;;;;;;9.82;100.00;98866.03;4951146;28;20404;-83
2023/10/27 08:15:46;;;;;;;18.63;10.60;;;;;;;9.77;100.00;98847.31;4935317;29;20616;-82
2023/10/27 09:45:35;;;;;;;20.45;10.27;;;;;;;10.27;100.00;98878.06;4934194;29;20500;-81
2023/10/27 09:48:05;;;;;;;21.75;9.60;;;;;;;10.39;100.00;98901.88;4935200;29;20043;-82
2023/10/27 09:50:32;;;;;;;25.38;10.10;;;;;;;10.43;100.00;98917.16;4918694;29;20031;-81
2023/10/27 09:52:59;;;;;;;21.65;10.43;;;;;;;10.35;100.00;98896.25;4935680;29;20151;-81
2023/10/27 09:55:30;;;;;;;25.48;10.30;;;;;;;10.51;100.00;98913.16;4935690;29;20038;-81
2023/10/27 09:57:57;;;;;;;21.58;10.63;;;;;;;10.30;100.00;98853.50;4918786;29;20027;-81
2023/10/27 10:00:26;;;;;;;22.50;11.43;;;;;;;10.77;100.00;98898.84;4935602;29;20035;-82
2023/10/27 10:02:52;;;;;;;22.30;10.95;;;;;;;10.69;100.00;98869.13;4918252;29;20036;-82
2023/10/27 10:08:40;;;;;;;27.60;11.20;;;;;;;11.02;100.00;98899.97;4935899;29;20090;-83
2023/10/27 10:11:18;;;;;;;22.58;10.25;;;;;;;11.07;100.00;98911.47;4918411;29;20043;-82
2023/10/27 10:13:48;;;;;;;19.08;10.30;;;;;;;10.98;100.00;98907.69;4935401;29;20060;-83
2023/10/27 10:20:22;;;;;;;16.17;8.20;;;;;;;10.46;100.00;98875.75;4910955;29;20054;-81
2023/10/27 10:23:24;;;;;;;11.60;7.07;;;;;;;10.67;100.00;98938.06;4915303;29;20051;-82
2023/10/27 10:26:06;;;;;;;17.88;8.15;;;;;;;10.50;100.00;98930.28;4916253;29;20044;-81
2023/10/27 10:28:33;;;;;;;17.70;9.50;;;;;;;10.16;100.00;98881.72;4899119;29;20028;-84
2023/10/27 10:31:21;;;;;;;16.77;8.80;;;;;;;10.53;100.00;98940.44;4916100;29;20143;-85
2023/10/27 10:34:29;;;;;;;18.35;9.77;;;;;;;10.06;100.00;98868.31;4887179;29;20576;-84
2023/10/27 10:37:23;;;;;;;24.27;10.98;;;;;;;10.42;100.00;98941.47;4897906;29;20048;-84
2023/10/27 10:40:23;;;;;;;23.88;11.68;;;;;;;10.37;100.00;98938.75;4916198;29;20554;-83
2023/10/27 10:43:16;;;;;;;33.30;13.10;;;;;;;10.28;100.00;98941.09;4915788;29;20040;-82
2023/10/27 10:45:53;;;;;;;28.08;11.75;;;;;;;10.26;100.00;98939.75;4916064;29;20059;-81
2023/10/27 10:48:20;;;;;;;28.95;12.00;;;;;;;10.27;100.00;98933.34;4916067;29;20043;-79
2023/10/27 10:50:47;;;;;;;30.55;13.07;;;;;;;10.22;100.00;98934.13;4915998;29;20024;-79
2023/10/27 10:53:17;;;;;;;31.58;13.00;;;;;;;10.31;100.00;98935.25;4916383;29;20039;-80
2023/10/27 10:55:44;;;;;;;30.63;12.73;;;;;;;10.36;100.00;98937.13;4915798;29;20492;-80
2023/10/27 10:58:10;;;;;;;30.98;12.70;;;;;;;10.29;100.00;98912.53;4898881;29;20123;-79
2023/10/27 11:00:36;;;;;;;31.67;14.00;;;;;;;10.37;100.00;98933.41;4915072;29;20111;-81
2023/10/27 11:03:08;;;;;;;30.27;13.30;;;;;;;10.29;100.00;98926.69;4915674;29;20043;-80
2023/10/27 11:05:57;;;;;;;39.03;15.52;;;;;;;10.33;100.00;98933.13;4915560;29;20036;-80
2023/10/27 11:08:28;;;;;;;39.47;15.10;;;;;;;10.13;100.00;98907.09;4898553;29;20505;-81
2023/10/27 11:11:18;;;;;;;39.40;15.23;;;;;;;10.03;100.00;98891.00;4898482;29;20396;-82
2023/10/27 11:13:53;;;;;;;44.22;16.27;;;;;;;10.23;100.00;98901.81;4898630;29;20111;-81
2023/10/27 11:16:27;;;;;;;43.55;16.90;;;;;;;10.17;100.00;98876.13;4898491;29;20118;-80
2023/10/27 11:18:57;;;;;;;41.13;17.02;;;;;;;10.26;100.00;98873.78;4898549;29;20130;-82
2023/10/27 11:21:51;;;;;;;46.08;17.55;;;;;;;10.75;100.00;98918.88;4915337;29;20508;-82
2023/10/27 11:24:52;;;;;;;;;;;;;;;;;;;;;
2023/10/27 11:54:30;;;;;;;23.45;13.73;;;;;;;11.03;100.00;98898.91;4713640;30;20131;-86
2023/10/27 11:56:58;;;;;;;18.90;12.93;;;;;;;11.14;100.00;98900.53;4713778;30;20527;-85
2023/10/27 11:59:41;;;;;;;27.85;14.40;;;;;;;11.29;100.00;98900.56;4794466;29;20042;-85
2023/10/27 12:05:30;;;;;;;22.23;12.82;;;;;;;11.35;100.00;98901.34;4915446;29;20196;-87
2023/10/27 12:07:55;;;;;;;25.73;13.98;;;;;;;11.56;100.00;98927.03;4915077;29;20374;-86
2023/10/27 12:10:21;;;;;;;23.25;13.18;;;;;;;11.49;100.00;98918.47;4898387;29;20036;-84
2023/10/27 12:12:47;;;;;;;22.95;12.70;;;;;;;11.46;100.00;98917.13;4901227;29;20032;-86
2023/10/27 12:15:14;;;;;;;24.50;12.88;;;;;;;11.41;100.00;98933.19;4916967;29;20111;-86
2023/10/27 12:17:42;;;;;;;22.23;11.18;;;;;;;11.38;100.00;98930.25;4901243;29;20533;-86
2023/10/27 12:20:12;;;;;;;22.13;12.60;;;;;;;11.38;100.00;98928.38;4917863;29;20115;-86
2023/10/27 12:22:50;;;;;;;22.05;12.48;;;;;;;11.47;100.00;98934.00;4901062;29;20071;-86
2023/10/27 12:25:15;;;;;;;20.98;11.93;;;;;;;11.38;100.00;98928.38;4901042;29;20063;-90
2023/10/27 12:27:41;;;;;;;22.27;12.05;;;;;;;11.30;100.00;98936.13;4900980;29;20036;-86
2023/10/27 12:30:25;;;;;;;18.75;10.32;;;;;;;11.03;100.00;98894.34;4900880;29;20122;-88
2023/10/27 12:32:53;;;;;;;15.75;9.45;;;;;;;11.21;100.00;98921.66;4900952;29;20040;-87
2023/10/27 12:42:07;;;;;;;15.75;7.82;;;;;;;10.93;100.00;98928.28;4854282;29;20043;-89
2023/10/27 12:44:34;;;;;;;12.10;6.57;;;;;;;10.81;100.00;98944.56;4900860;29;20396;-88
2023/10/27 12:46:59;;;;;;;7.63;5.43;;;;;;;10.57;100.00;98928.16;4900649;29;20050;-92
2023/10/27 12:49:25;;;;;;;10.98;5.25;;;;;;;10.49;100.00;98934.00;4917785;29;20103;-94
2023/10/27 12:51:50;;;;;;;9.82;5.40;;;;;;;10.37;100.00;98926.19;4917852;29;20036;-87
2023/10/27 12:54:16;;;;;;;10.70;5.00;;;;;;;10.36;100.00;98937.94;4916391;29;20033;-86
2023/10/27 12:56:56;;;;;;;11.40;5.07;;;;;;;10.49;100.00;98948.19;4916814;29;20032;-88
2023/10/27 12:59:25;;;;;;;8.75;5.35;;;;;;;10.38;100.00;98929.66;4900681;29;20796;-90
2023/10/27 13:01:50;;;;;;;9.07;6.45;;;;;;;10.38;100.00;98914.44;4900811;29;20028;-90
2023/10/27 13:04:18;;;;;;;6.45;4.78;;;;;;;10.28;100.00;98901.03;4917726;29;20031;-89
2023/10/27 13:06:44;;;;;;;9.63;5.80;;;;;;;10.53;100.00;98943.09;4900620;29;20028;-89
2023/10/27 13:09:10;;;;;;;10.43;5.68;;;;;;;10.58;100.00;98959.16;4900693;29;20142;-89
2023/10/27 13:11:36;;;;;;;10.40;5.93;;;;;;;10.30;100.00;98927.50;4900754;29;20032;-88
2023/10/27 13:14:01;;;;;;;11.68;5.60;;;;;;;10.35;100.00;98959.56;4900547;29;20068;-86
2023/10/27 13:16:37;;;;;;;8.80;5.68;;;;;;;10.35;100.00;98956.91;4900496;29;20060;-87
2023/10/27 13:19:35;;;;;;;9.55;6.13;;;;;;;10.20;100.00;98933.56;4900123;29;20028;-91
2023/10/27 13:28:28;;;;;;;10.82;6.72;;;;;;;10.82;100.00;98960.34;4917748;29;20039;-88
2023/10/27 13:34:16;;;;;;;9.40;6.93;;;;;;;10.90;100.00;98964.38;4917631;29;20116;-89
2023/10/27 13:36:47;;;;;;;8.32;6.60;;;;;;;10.67;100.00;98928.19;4917049;29;20024;-88
2023/10/27 13:39:19;;;;;;;8.52;6.43;;;;;;;10.68;100.00;98934.34;4899393;29;20191;-92
2023/10/27 13:41:45;;;;;;;10.77;5.60;;;;;;;10.64;100.00;98938.59;4916545;29;20043;-87
2023/10/27 13:44:55;;;;;;;8.25;6.10;;;;;;;10.78;100.00;98969.94;4917045;29;20032;-88
2023/10/27 13:50:48;;;;;;;11.45;5.97;;;;;;;10.59;100.00;98930.56;4858979;29;20525;-87
2023/10/27 13:53:14;;;;;;;9.95;6.15;;;;;;;10.57;100.00;98938.84;4858813;29;20033;-87
2023/10/27 13:55:43;;;;;;;11.77;6.65;;;;;;;10.80;100.00;98973.16;4843629;29;20038;-92
2023/10/27 13:58:35;;;;;;;10.75;5.80;;;;;;;10.52;100.00;98949.53;4895178;29;20036;-89
2023/10/27 14:01:04;;;;;;;10.88;6.55;;;;;;;10.76;100.00;98996.16;4901844;29;20468;-89
2023/10/27 14:03:30;;;;;;;11.05;7.05;;;;;;;10.51;100.00;98937.22;4899747;29;20071;-89
2023/10/27 14:33:14;;;;;;;14.85;9.45;;;;;;;10.53;100.00;98983.19;4741180;30;20535;-88
2023/10/27 14:35:47;;;;;;;18.88;10.38;;;;;;;10.63;100.00;98996.59;4785506;30;20035;-87
2023/10/27 14:38:20;;;;;;;13.82;9.57;;;;;;;10.76;100.00;99008.72;4851309;29;20485;-89
2023/10/27 14:41:03;;;;;;;17.23;10.00;;;;;;;10.71;100.00;98998.81;4899348;29;20070;-88
2023/10/27 14:43:28;;;;;;;15.25;9.52;;;;;;;10.53;100.00;98962.63;4899288;29;20047;-89
2023/10/27 14:47:00;;;;;;;;;;;;;;;;;;;;;
2023/10/27 14:50:13;;;;;;;;;;;;;;;;;;;;;
2023/10/27 14:52:39;;;;;;;17.13;10.48;;;;;;;10.83;100.00;99028.78;4872379;29;20048;-90
2023/10/27 14:55:05;;;;;;;17.02;10.38;;;;;;;10.70;100.00;99007.09;4898961;29;20437;-89